Miguel Oliver — ECLX — position and weather

sailwx.info

Track history (hours):
 
Tides and Currents Weather Stations Pressure Air Temp Water Temp Dewpoint Dewpoint Depression Visibility Wind Speed Wind Dir Waves Ship Positions

Oceanographic research ship Miguel Oliver (Spain)

Ship's website: http://www.mapa.es/es/pesca/pags/miguel_web/index.htm

Last reported at 2015-Apr-21 04:33 UTC. Time now 2015-Apr-21 04:58 UTC.
Position N 38°42' W 010°06'.

Length 70 m; draft 4.8 m.

Type: Other ship. MMSI: 225322000.

Date/timePositionNaut miles runAvg speedWind from/ knotsBaromVisibWave heightAir tempDewpointWater temp
2015-Apr-21 04:33N 38°42' W 010°06'1212.3
2015-Apr-21 03:33N 38°55' W 010°05'1212.2
2015-Apr-21 02:33N 39°06' W 010°01'1512.1
2015-Apr-21 01:19N 39°21' W 009°56'  
2015-Apr-16 16:33N 43°41' W 005°48'1211.3
2015-Apr-16 15:27N 43°40' W 005°31'  
2015-Apr-12 23:26N 43°39' W 004°59'3 2.4
2015-Apr-12 22:05N 43°42' W 004°59'0 0.0
2015-Apr-12 15:09N 43°42' W 004°59'25 1.7
2015-Apr-12 00:15N 43°35' W 005°32'5 6.3
2015-Apr-11 23:29N 43°40' W 005°32'7 1.1
2015-Apr-11 16:28N 43°45' W 005°25'5 3.7
2015-Apr-11 15:13N 43°49' W 005°20'7 7.9
2015-Apr-11 14:23N 43°42' W 005°21'7 6.0
2015-Apr-11 13:15N 43°36' W 005°24'2 1.3
2015-Apr-11 11:26N 43°38' W 005°24'6 6.1
2015-Apr-11 10:27N 43°36' W 005°32'5 5.8
2015-Apr-11 09:33N 43°41' W 005°32'3 1.6
2015-Apr-11 07:26N 43°44' W 005°32'  
Track history (hours):
 
Tides and Currents Weather Stations Pressure Air Temp Water Temp Dewpoint Dewpoint Depression Visibility Wind Speed Wind Dir Waves Ship Positions

Oceanographic research ship Miguel Oliver (Spain)

Ship's website: http://www.mapa.es/es/pesca/pags/miguel_web/index.htm

Last reported at 2015-Apr-21 04:33 UTC. Time now 2015-Apr-21 04:58 UTC.
Position N 38°42' W 010°06'.

Length 70 m; draft 4.8 m.

Type: Other ship. MMSI: 225322000.

Date/timePositionNaut miles runAvg speedWind from/ knotsBaromVisibWave heightAir tempDewpointWater temp
2015-Apr-21 04:33N 38°42' W 010°06'1212.3
2015-Apr-21 03:33N 38°55' W 010°05'1212.2
2015-Apr-21 02:33N 39°06' W 010°01'1512.1
2015-Apr-21 01:19N 39°21' W 009°56'  
2015-Apr-16 16:33N 43°41' W 005°48'1211.3
2015-Apr-16 15:27N 43°40' W 005°31'  
2015-Apr-12 23:26N 43°39' W 004°59'3 2.4
2015-Apr-12 22:05N 43°42' W 004°59'0 0.0
2015-Apr-12 15:09N 43°42' W 004°59'25 1.7
2015-Apr-12 00:15N 43°35' W 005°32'5 6.3
2015-Apr-11 23:29N 43°40' W 005°32'7 1.1
2015-Apr-11 16:28N 43°45' W 005°25'5 3.7
2015-Apr-11 15:13N 43°49' W 005°20'7 7.9
2015-Apr-11 14:23N 43°42' W 005°21'7 6.0
2015-Apr-11 13:15N 43°36' W 005°24'2 1.3
2015-Apr-11 11:26N 43°38' W 005°24'6 6.1
2015-Apr-11 10:27N 43°36' W 005°32'5 5.8
2015-Apr-11 09:33N 43°41' W 005°32'3 1.6
2015-Apr-11 07:26N 43°44' W 005°32'  

Dump ship's entire track history